Time;durP1;ratioP1;P1;durP2;ratioP2;P2;SDS_P1;SDS_P2;PMS_P1;PMS_P2;Temp;Humidity;BMP_temperature;BMP_pressure;BME280_temperature;BME280_humidity;BME280_pressure;Samples;Min_cycle;Max_cycle;Signal;HPM_P1;HPM_P2
2022/01/25 00:26:25;;;;;;;1.77;0.88;;;-0.30;99.90;;;;;;5054541;28;20488;-73
2022/01/25 00:29:04;;;;;;;2.10;1.30;;;-0.20;99.90;;;;;;5054556;28;20377;-73
2022/01/25 00:31:31;;;;;;;0.40;0.40;;;-0.40;99.90;;;;;;5036568;28;20025;-73
2022/01/25 00:33:56;;;;;;;5.15;4.13;;;-0.80;99.90;;;;;;5036701;28;20024;-72
2022/01/25 00:36:25;;;;;;;0.45;0.45;;;-1.00;99.90;;;;;;5036659;28;20029;-72
2022/01/25 00:38:52;;;;;;;3.03;2.85;;;-1.10;99.90;;;;;;5036535;28;20115;-72
2022/01/25 00:41:19;;;;;;;0.77;0.77;;;-1.00;99.90;;;;;;5054298;28;20028;-72
2022/01/25 00:43:45;;;;;;;3.78;2.05;;;-1.10;99.90;;;;;;5036338;28;20113;-73
2022/01/25 00:46:12;;;;;;;0.93;0.93;;;-1.20;99.90;;;;;;5036305;28;20029;-73
2022/01/25 00:56:21;;;;;;;1.02;1.02;;;-1.60;99.90;;;;;;5036189;28;20481;-72
2022/01/25 00:58:46;;;;;;;0.77;0.75;;;-1.50;99.90;;;;;;5053971;28;20393;-72
2022/01/25 01:01:12;;;;;;;0.55;0.55;;;-1.60;99.90;;;;;;5019417;28;20025;-73
2022/01/25 01:03:38;;;;;;;1.08;1.05;;;-1.50;99.90;;;;;;5035878;28;20025;-72
2022/01/25 01:06:06;;;;;;;4.82;2.03;;;-1.50;99.90;;;;;;5053693;28;20033;-72
2022/01/25 01:08:33;;;;;;;9.43;2.72;;;-1.80;99.90;;;;;;5036024;28;20067;-72
2022/01/25 01:11:02;;;;;;;0.98;0.98;;;-2.00;99.90;;;;;;5053799;28;20043;-72
2022/01/25 01:30:09;;;;;;;2.20;1.48;;;-2.60;99.90;;;;;;5035659;28;20029;-73
2022/01/25 01:40:56;;;;;;;2.75;0.85;;;-2.60;99.90;;;;;;5053187;28;20389;-72
2022/01/25 01:48:52;;;;;;;2.85;2.75;;;-2.20;99.90;;;;;;5035094;28;20029;-73
2022/01/25 01:53:53;;;;;;;0.45;0.45;;;-1.70;99.90;;;;;;5053102;28;20020;-73
2022/01/25 01:56:19;;;;;;;2.30;1.23;;;-1.70;99.90;;;;;;5018339;28;20075;-73
2022/01/25 01:58:45;;;;;;;2.40;2.30;;;-1.70;99.90;;;;;;5035123;28;20480;-73
2022/01/25 02:01:15;;;;;;;8.90;4.25;;;-1.80;99.90;;;;;;5034989;28;20029;-72
2022/01/25 02:03:41;;;;;;;2.33;2.23;;;-2.10;99.90;;;;;;5018360;28;20430;-72
2022/01/25 02:06:07;;;;;;;0.63;0.63;;;-2.30;99.90;;;;;;5052653;28;20279;-72
2022/01/25 02:08:34;;;;;;;3.17;3.08;;;-2.40;99.90;;;;;;5035026;28;20412;-72
2022/01/25 02:11:01;;;;;;;5.45;3.35;;;-2.60;99.90;;;;;;5034763;28;20082;-72
2022/01/25 02:13:26;;;;;;;0.70;0.70;;;-2.80;99.90;;;;;;5053057;28;20345;-73
2022/01/25 02:15:55;;;;;;;0.70;0.70;;;-2.90;99.90;;;;;;5052413;28;20032;-73
2022/01/25 02:23:41;;;;;;;4.28;3.58;;;-2.80;99.90;;;;;;5034454;28;20043;-72
2022/01/25 02:26:09;;;;;;;0.50;0.50;;;-2.60;99.90;;;;;;5052280;28;20025;-73
2022/01/25 02:28:38;;;;;;;0.93;0.93;;;-2.40;99.90;;;;;;5034405;28;20177;-72
2022/01/25 02:31:07;;;;;;;3.67;3.35;;;-2.20;99.90;;;;;;5034503;28;20032;-72
2022/01/25 02:33:34;;;;;;;1.27;1.23;;;-2.20;99.90;;;;;;5034421;28;20126;-73
2022/01/25 02:36:04;;;;;;;2.03;1.63;;;-2.00;99.90;;;;;;5051934;28;20037;-73
2022/01/25 02:38:33;;;;;;;0.95;0.95;;;-1.80;99.90;;;;;;5034600;28;20025;-73
2022/01/25 02:40:59;;;;;;;0.45;0.45;;;-1.70;99.90;;;;;;5052139;28;20021;-73
2022/01/25 02:43:27;;;;;;;1.80;1.55;;;-1.40;99.90;;;;;;5051947;28;20025;-73
2022/01/25 02:49:00;;;;;;;0.50;0.50;;;-1.30;99.90;;;;;;5013921;28;20089;-73
2022/01/25 02:51:35;;;;;;;3.65;3.33;;;-1.40;99.90;;;;;;5034180;28;20032;-72
2022/01/25 02:54:02;;;;;;;9.55;4.43;;;-1.70;99.90;;;;;;5052031;28;20029;-73
2022/01/25 02:56:29;;;;;;;1.45;1.35;;;-2.00;99.90;;;;;;5017479;28;20033;-73
2022/01/25 02:58:56;;;;;;;14.15;5.18;;;-2.50;99.90;;;;;;5034001;28;20448;-73
2022/01/25 03:01:22;;;;;;;0.90;0.90;;;-2.80;99.90;;;;;;5017487;28;20024;-73
2022/01/25 03:03:49;;;;;;;1.30;1.23;;;-3.00;99.90;;;;;;5033786;28;20029;-72
2022/01/25 03:06:19;;;;;;;3.00;2.80;;;-2.90;99.90;;;;;;5033986;28;20064;-73
2022/01/25 03:08:47;;;;;;;0.70;0.70;;;-2.90;99.90;;;;;;5033981;28;20079;-72
2022/01/25 03:11:13;;;;;;;1.98;1.88;;;-2.90;99.90;;;;;;5051721;28;20078;-72
2022/01/25 03:13:56;;;;;;;1.13;1.13;;;-2.70;99.90;;;;;;5051592;28;20032;-72
2022/01/25 03:16:40;;;;;;;4.32;3.45;;;-2.70;99.90;;;;;;5051716;28;20032;-72
2022/01/25 03:21:59;;;;;;;0.70;0.70;;;-2.90;99.90;;;;;;5051527;28;20037;-72
2022/01/25 03:24:25;;;;;;;0.77;0.77;;;-2.80;99.90;;;;;;5051662;28;20025;-73
2022/01/25 03:26:52;;;;;;;1.70;1.70;;;-2.60;99.90;;;;;;5033629;28;20532;-72
2022/01/25 03:29:17;;;;;;;0.85;0.85;;;-2.60;99.90;;;;;;5033733;28;20029;-72
2022/01/25 03:31:43;;;;;;;2.72;2.35;;;-2.80;99.90;;;;;;5017246;28;20052;-72
2022/01/25 03:34:09;;;;;;;0.70;0.70;;;-3.10;99.90;;;;;;5033656;28;20508;-72
2022/01/25 03:36:35;;;;;;;1.65;1.55;;;-3.20;99.90;;;;;;5033459;28;20033;-73
2022/01/25 03:39:01;;;;;;;0.70;0.70;;;-3.10;99.90;;;;;;5051512;28;20033;-72
2022/01/25 03:41:27;;;;;;;1.45;1.45;;;-3.20;99.90;;;;;;5051365;28;20064;-72
2022/01/25 03:43:55;;;;;;;3.30;3.15;;;-3.30;99.90;;;;;;5051464;28;20029;-72
2022/01/25 03:46:36;;;;;;;2.08;1.92;;;-3.50;99.90;;;;;;5051449;28;20071;-73
2022/01/25 03:51:49;;;;;;;0.60;0.60;;;-3.40;99.90;;;;;;5051351;28;20403;-72
2022/01/25 03:54:15;;;;;;;1.73;1.65;;;-3.30;99.90;;;;;;5017076;28;20029;-72
2022/01/25 03:56:41;;;;;;;1.40;1.40;;;-3.30;99.90;;;;;;5033670;28;20031;-72
2022/01/25 03:59:07;;;;;;;0.85;0.85;;;-3.00;99.90;;;;;;5037347;28;20499;-72
2022/01/25 04:01:34;;;;;;;0.63;0.63;;;-2.90;99.90;;;;;;5054986;28;20020;-73
2022/01/25 04:04:05;;;;;;;0.70;0.70;;;-2.70;99.90;;;;;;5055072;28;20025;-72
2022/01/25 04:06:32;;;;;;;2.60;2.40;;;-2.60;99.90;;;;;;5037141;28;20516;-72
2022/01/25 04:09:00;;;;;;;1.83;1.75;;;-2.50;99.90;;;;;;5055029;28;20546;-72
2022/01/25 04:11:27;;;;;;;0.85;0.85;;;-2.30;99.90;;;;;;5054721;28;20039;-72
2022/01/25 04:13:55;;;;;;;0.65;0.65;;;-2.30;99.90;;;;;;5020526;28;20061;-73
2022/01/25 04:16:29;;;;;;;8.35;2.15;;;-2.30;99.90;;;;;;5036898;28;20021;-72
2022/01/25 04:26:45;;;;;;;2.53;2.42;;;-2.40;99.90;;;;;;5054624;28;20083;-71
2022/01/25 04:29:11;;;;;;;0.82;0.82;;;-2.40;99.90;;;;;;5054639;28;20029;-71
2022/01/25 04:31:38;;;;;;;0.70;0.70;;;-2.60;99.90;;;;;;5036445;28;20124;-72
2022/01/25 04:34:11;;;;;;;1.02;1.02;;;-2.70;99.90;;;;;;5036417;28;20404;-71
2022/01/25 04:50:02;;;;;;;1.08;1.08;;;-3.10;99.90;;;;;;5036424;28;20060;-73
2022/01/25 04:52:33;;;;;;;0.93;0.93;;;-3.30;99.90;;;;;;5054021;28;20028;-72
2022/01/25 04:55:20;;;;;;;25.35;1.48;;;-3.30;99.90;;;;;;5019789;28;20032;-72
2022/01/25 04:57:56;;;;;;;1.05;0.90;;;-3.50;99.90;;;;;;5054054;28;20492;-72
2022/01/25 05:00:24;;;;;;;0.65;0.65;;;-3.80;99.90;;;;;;5019705;28;20508;-72
2022/01/25 05:03:12;;;;;;;1.67;1.23;;;-3.80;99.90;;;;;;5019419;28;20428;-72
2022/01/25 05:05:52;;;;;;;8.70;2.70;;;-3.90;99.90;;;;;;5053810;28;20040;-72
2022/01/25 05:09:07;;;;;;;1.75;1.65;;;-3.50;99.90;;;;;;5035677;28;20085;-73
2022/01/25 05:11:16;;;;;;;0.50;0.50;;;-3.30;99.90;;;;;;5045518;28;20029;-72
2022/01/25 05:13:47;;;;;;;0.70;0.70;;;-3.20;99.90;;;;;;5035864;28;20443;-72
2022/01/25 05:16:34;;;;;;;2.45;2.25;;;-3.10;99.90;;;;;;5019117;28;20523;-73
2022/01/25 05:24:20;;;;;;;1.00;1.00;;;-3.00;99.90;;;;;;5035658;28;20017;-73
2022/01/25 05:26:46;;;;;;;0.70;0.70;;;-3.20;99.90;;;;;;5053368;28;20099;-72
2022/01/25 05:29:12;;;;;;;1.73;1.67;;;-3.20;99.90;;;;;;5019003;28;20490;-72
2022/01/25 05:31:38;;;;;;;0.65;0.65;;;-3.00;99.90;;;;;;5035258;28;20393;-72
2022/01/25 05:34:07;;;;;;;1.88;1.77;;;-3.10;99.90;;;;;;5053571;28;20025;-73
2022/01/25 05:36:33;;;;;;;1.63;1.52;;;-3.20;99.90;;;;;;5053299;28;20021;-72
2022/01/25 05:39:02;;;;;;;8.10;2.90;;;-3.40;99.90;;;;;;5053213;28;20472;-72
2022/01/25 05:41:31;;;;;;;2.15;2.05;;;-3.40;99.90;;;;;;5053076;28;20029;-72
2022/01/25 05:44:24;;;;;;;8.23;1.40;;;-3.50;99.90;;;;;;5053108;28;20025;-72
2022/01/25 05:49:23;;;;;;;1.67;1.58;;;-3.50;99.90;;;;;;5053088;28;20159;-72
2022/01/25 05:51:49;;;;;;;2.05;1.92;;;-3.70;99.90;;;;;;5035067;28;20029;-73
2022/01/25 05:54:15;;;;;;;3.10;1.58;;;-3.80;99.90;;;;;;5034966;28;20098;-72
2022/01/25 05:56:41;;;;;;;0.70;0.70;;;-3.60;99.90;;;;;;5052564;28;20024;-72
2022/01/25 05:59:06;;;;;;;1.75;1.05;;;-3.50;99.90;;;;;;5052842;28;20021;-73
2022/01/25 06:01:34;;;;;;;3.13;2.65;;;-3.40;99.90;;;;;;5034740;28;20013;-72
2022/01/25 06:04:00;;;;;;;0.63;0.63;;;-3.40;99.90;;;;;;5052769;28;20075;-72
2022/01/25 06:06:27;;;;;;;0.57;0.57;;;-3.30;99.90;;;;;;5052697;28;20033;-72
2022/01/25 06:08:53;;;;;;;1.05;1.05;;;-3.20;99.90;;;;;;5034822;28;20020;-73
2022/01/25 06:11:20;;;;;;;0.50;0.50;;;-3.10;99.90;;;;;;5052567;28;20108;-72
2022/01/25 06:13:46;;;;;;;0.90;0.90;;;-3.00;99.90;;;;;;5034645;28;20025;-72
2022/01/25 06:16:12;;;;;;;2.88;1.15;;;-3.30;99.90;;;;;;5017939;28;20020;-72
2022/01/25 06:18:38;;;;;;;0.85;0.85;;;-3.50;99.90;;;;;;5034528;28;20017;-72
2022/01/25 06:21:04;;;;;;;1.77;1.58;;;-3.70;99.90;;;;;;5051571;28;20753;-73
2022/01/25 06:23:30;;;;;;;1.95;1.20;;;-3.80;99.90;;;;;;5017908;28;20079;-73
2022/01/25 06:25:55;;;;;;;1.77;1.70;;;-4.10;99.90;;;;;;5052293;28;20374;-72
2022/01/25 06:28:21;;;;;;;0.60;0.60;;;-4.30;99.90;;;;;;5017969;28;20074;-72
2022/01/25 06:30:47;;;;;;;1.17;1.17;;;-4.10;99.90;;;;;;5052045;28;20538;-72
2022/01/25 06:33:13;;;;;;;0.70;0.70;;;-4.00;99.90;;;;;;5017959;28;20025;-73
2022/01/25 06:35:39;;;;;;;0.60;0.60;;;-3.80;99.90;;;;;;5034062;28;20021;-72
2022/01/25 06:38:04;;;;;;;0.70;0.70;;;-3.60;99.90;;;;;;5034466;28;20078;-72
2022/01/25 06:40:30;;;;;;;1.45;1.45;;;-3.50;99.90;;;;;;5046151;28;20497;-72
2022/01/25 06:42:56;;;;;;;0.60;0.60;;;-3.60;99.90;;;;;;5051756;28;20025;-72
2022/01/25 06:45:24;;;;;;;0.52;0.52;;;-3.70;99.90;;;;;;5050804;28;20111;-72
2022/01/25 06:47:51;;;;;;;0.95;0.95;;;-3.80;99.90;;;;;;5050688;28;20044;-72
2022/01/25 06:50:19;;;;;;;0.57;0.57;;;-3.70;99.90;;;;;;5051841;28;20020;-72
2022/01/25 06:52:46;;;;;;;1.55;1.48;;;-3.50;99.90;;;;;;5050199;28;20025;-72
2022/01/25 06:55:17;;;;;;;3.25;3.05;;;-3.30;99.90;;;;;;5051578;28;20024;-72
2022/01/25 06:57:43;;;;;;;1.67;1.58;;;-3.20;99.90;;;;;;5033915;28;20360;-72
2022/01/25 07:00:21;;;;;;;13.43;1.65;;;-3.30;99.90;;;;;;5050484;28;20500;-72
2022/01/25 07:02:47;;;;;;;1.02;1.02;;;-3.40;99.90;;;;;;5051547;28;20040;-73
2022/01/25 07:05:13;;;;;;;0.80;0.80;;;-3.50;99.90;;;;;;5050437;28;20508;-72
2022/01/25 07:07:40;;;;;;;0.77;0.77;;;-3.30;99.90;;;;;;5033647;28;20033;-73
2022/01/25 07:10:07;;;;;;;1.90;1.70;;;-3.20;99.90;;;;;;5051902;28;20025;-72
2022/01/25 07:12:33;;;;;;;0.55;0.55;;;-3.10;99.90;;;;;;5050220;28;20389;-73
2022/01/25 07:14:59;;;;;;;0.55;0.55;;;-3.00;99.90;;;;;;5051644;28;20021;-72
2022/01/25 07:17:25;;;;;;;1.88;1.77;;;-2.90;99.90;;;;;;5046597;28;20104;-72
2022/01/25 07:19:51;;;;;;;0.60;0.60;;;-2.80;99.90;;;;;;5051469;28;20053;-72
2022/01/25 07:22:17;;;;;;;1.95;1.27;;;-2.80;99.90;;;;;;5032681;28;20489;-72
2022/01/25 07:24:43;;;;;;;0.60;0.60;;;-2.50;99.90;;;;;;5051349;28;20025;-72
2022/01/25 07:27:09;;;;;;;1.48;1.42;;;-2.40;99.90;;;;;;5049047;28;20384;-72
2022/01/25 07:29:35;;;;;;;1.08;1.08;;;-2.30;99.90;;;;;;5050333;28;20254;-72
2022/01/25 07:32:01;;;;;;;0.47;0.47;;;-2.10;99.90;;;;;;5052647;28;20078;-72
2022/01/25 07:34:28;;;;;;;0.63;0.63;;;-2.10;99.90;;;;;;5054208;28;20060;-72
2022/01/25 07:36:54;;;;;;;0.70;0.70;;;-2.20;99.90;;;;;;5055417;28;20445;-72
2022/01/25 07:39:20;;;;;;;0.70;0.70;;;-2.10;99.90;;;;;;5037406;28;20021;-72
2022/01/25 07:41:46;;;;;;;0.77;0.77;;;-2.10;99.90;;;;;;5055096;28;20027;-72
2022/01/25 07:44:12;;;;;;;0.63;0.63;;;-2.10;99.90;;;;;;5055120;28;20604;-72
2022/01/25 07:46:39;;;;;;;0.40;0.40;;;-2.00;99.90;;;;;;5037353;28;20057;-72
2022/01/25 07:49:05;;;;;;;0.40;0.40;;;-1.90;99.90;;;;;;5037332;28;20666;-72
2022/01/25 07:51:31;;;;;;;0.80;0.75;;;-1.80;99.90;;;;;;5055189;28;20099;-72
2022/01/25 07:53:59;;;;;;;0.40;0.40;;;-1.70;99.90;;;;;;5055155;28;20029;-72
2022/01/25 07:56:25;;;;;;;6.47;5.82;;;-1.70;99.90;;;;;;5068226;28;20029;-73
2022/01/25 07:58:51;;;;;;;0.57;0.57;;;-1.70;99.90;;;;;;5040275;28;20040;-72
2022/01/25 08:01:19;;;;;;;0.80;0.80;;;-1.60;99.90;;;;;;5070989;28;20412;-72
2022/01/25 08:03:45;;;;;;;1.33;0.85;;;-1.70;99.90;;;;;;5054811;28;20496;-72
2022/01/25 08:06:12;;;;;;;1.45;1.35;;;-1.70;99.90;;;;;;5054883;28;20074;-72
2022/01/25 08:08:39;;;;;;;1.60;1.50;;;-1.80;99.90;;;;;;5054759;28;20027;-72
2022/01/25 08:11:04;;;;;;;1.23;1.13;;;-1.70;99.90;;;;;;5054411;28;20032;-72
2022/01/25 08:13:30;;;;;;;1.00;0.68;;;-1.70;99.90;;;;;;5036749;28;20485;-72
2022/01/25 08:15:56;;;;;;;3.40;1.27;;;-1.60;99.90;;;;;;5036920;28;20075;-72
2022/01/25 08:18:22;;;;;;;1.63;1.52;;;-1.50;99.90;;;;;;5054533;28;20180;-72
2022/01/25 08:20:48;;;;;;;0.75;0.75;;;-1.50;99.90;;;;;;5035480;28;20096;-73
2022/01/25 08:23:15;;;;;;;0.38;0.38;;;-1.30;99.90;;;;;;5036814;28;20395;-72
2022/01/25 08:25:40;;;;;;;0.70;0.70;;;-1.30;99.90;;;;;;5036234;28;20025;-73
2022/01/25 08:28:06;;;;;;;0.60;0.60;;;-1.10;99.90;;;;;;5054568;28;20504;-72
2022/01/25 08:30:32;;;;;;;1.25;1.15;;;-1.00;99.90;;;;;;5054634;28;20084;-73
2022/01/25 08:32:58;;;;;;;1.08;0.73;;;-0.90;99.90;;;;;;5038167;28;20055;-73
2022/01/25 08:35:24;;;;;;;0.40;0.40;;;-0.70;99.90;;;;;;5054297;28;20051;-73
2022/01/25 08:37:50;;;;;;;0.40;0.40;;;-0.60;99.90;;;;;;5053925;28;20075;-73
2022/01/25 08:40:16;;;;;;;2.28;2.15;;;-0.50;99.90;;;;;;5052546;28;20021;-72
2022/01/25 08:42:42;;;;;;;0.68;0.68;;;-0.40;99.90;;;;;;5019622;28;20110;-73
2022/01/25 08:45:10;;;;;;;0.50;0.50;;;-0.50;99.90;;;;;;5054914;28;20556;-73
2022/01/25 08:47:37;;;;;;;0.73;0.73;;;-0.50;99.90;;;;;;5021272;28;20461;-73
2022/01/25 08:50:08;;;;;;;1.77;0.65;;;-0.30;99.90;;;;;;5022188;28;20025;-73
2022/01/25 08:52:35;;;;;;;1.02;0.88;;;-0.20;99.90;;;;;;5032779;28;20416;-73
2022/01/25 08:55:07;;;;;;;1.02;1.00;;;0.00;99.90;;;;;;5037156;28;20033;-73
2022/01/25 08:57:33;;;;;;;11.27;2.47;;;0.10;99.90;;;;;;5053694;28;20029;-74
2022/01/25 08:59:59;;;;;;;0.52;0.52;;;0.30;99.90;;;;;;5043135;28;20017;-73
2022/01/25 09:02:25;;;;;;;0.93;0.93;;;0.60;99.90;;;;;;5026327;28;20032;-73
2022/01/25 09:04:51;;;;;;;0.80;0.80;;;0.60;99.90;;;;;;5055011;28;20404;-73
2022/01/25 09:07:17;;;;;;;0.98;0.65;;;0.60;99.90;;;;;;5037032;28;20036;-73
2022/01/25 09:09:43;;;;;;;4.75;2.60;;;0.60;99.90;;;;;;5020529;28;20035;-72
2022/01/25 09:12:10;;;;;;;0.40;0.40;;;0.70;99.90;;;;;;5045784;28;20029;-73
2022/01/25 09:14:36;;;;;;;0.50;0.50;;;0.80;99.90;;;;;;5035890;28;20049;-73
2022/01/25 09:17:02;;;;;;;1.65;0.57;;;0.90;99.90;;;;;;5053058;28;20495;-73
2022/01/25 09:19:28;;;;;;;0.50;0.50;;;1.00;99.90;;;;;;5050062;28;20032;-73
2022/01/25 09:21:53;;;;;;;0.32;0.32;;;1.10;99.90;;;;;;5023533;28;20029;-73
2022/01/25 09:24:19;;;;;;;0.40;0.40;;;1.30;99.90;;;;;;5053038;28;20025;-73
2022/01/25 09:26:45;;;;;;;1.10;0.80;;;1.40;99.90;;;;;;5030441;28;20396;-73
2022/01/25 09:29:11;;;;;;;0.57;0.57;;;1.50;99.90;;;;;;5052879;28;20424;-73
2022/01/25 09:31:37;;;;;;;0.70;0.70;;;1.50;99.90;;;;;;5037106;28;20107;-73
2022/01/25 09:34:03;;;;;;;1.17;0.93;;;1.60;99.90;;;;;;5051582;28;20036;-73
2022/01/25 09:36:29;;;;;;;0.75;0.75;;;1.60;99.90;;;;;;5051274;28;20488;-73
2022/01/25 09:38:56;;;;;;;0.88;0.60;;;1.60;99.90;;;;;;5036710;28;20021;-73
2022/01/25 09:41:22;;;;;;;0.60;0.60;;;1.80;99.90;;;;;;5052517;28;20411;-73
2022/01/25 09:43:48;;;;;;;1.70;1.27;;;2.00;99.90;;;;;;5032659;28;20025;-73
2022/01/25 09:46:14;;;;;;;1.58;1.48;;;2.20;99.90;;;;;;5045744;28;20043;-73
2022/01/25 09:48:40;;;;;;;0.32;0.32;;;2.40;99.90;;;;;;5044110;28;20116;-73
2022/01/25 09:51:09;;;;;;;0.30;0.30;;;2.70;99.90;;;;;;5052860;28;20116;-73
2022/01/25 09:53:36;;;;;;;0.40;0.40;;;2.90;99.90;;;;;;5053381;28;20040;-73
2022/01/25 09:56:03;;;;;;;0.30;0.30;;;3.40;99.90;;;;;;5050296;28;20112;-73
2022/01/25 09:58:28;;;;;;;0.30;0.30;;;3.80;99.90;;;;;;5029906;28;20074;-73
2022/01/25 10:00:57;;;;;;;0.30;0.30;;;4.30;99.90;;;;;;5052900;28;20025;-73
2022/01/25 10:03:47;;;;;;;0.50;0.50;;;4.50;99.90;;;;;;5047803;28;20013;-73
2022/01/25 10:06:17;;;;;;;0.52;0.52;;;4.80;99.90;;;;;;5050548;28;20040;-73
2022/01/25 10:08:44;;;;;;;0.20;0.20;;;5.20;99.90;;;;;;5021112;28;20499;-73
2022/01/25 10:11:13;;;;;;;6.93;0.85;;;5.80;99.90;;;;;;5046946;28;20025;-73
2022/01/25 10:13:44;;;;;;;0.47;0.47;;;6.30;99.90;;;;;;5052400;28;20024;-73
2022/01/25 10:16:19;;;;;;;0.57;0.57;;;7.00;99.90;;;;;;5034323;28;20032;-73
2022/01/25 10:18:50;;;;;;;0.75;0.75;;;7.50;99.90;;;;;;5052911;28;20540;-73
2022/01/25 10:21:23;;;;;;;0.20;0.20;;;7.80;99.40;;;;;;5045273;28;20473;-73
2022/01/25 10:24:12;;;;;;;0.80;0.68;;;8.40;97.50;;;;;;5046078;28;20048;-73
2022/01/25 10:26:54;;;;;;;0.40;0.40;;;9.00;94.70;;;;;;5035443;28;20075;-73
2022/01/25 10:29:34;;;;;;;2.08;1.95;;;9.50;92.30;;;;;;5046392;28;20075;-73
2022/01/25 10:32:14;;;;;;;0.20;0.20;;;10.00;89.60;;;;;;5022592;28;20025;-73
2022/01/25 10:34:45;;;;;;;0.20;0.20;;;10.20;86.30;;;;;;5041197;28;20032;-74
2022/01/25 10:37:19;;;;;;;0.60;0.60;;;10.60;83.90;;;;;;5033976;28;20032;-73
2022/01/25 10:39:48;;;;;;;4.25;0.77;;;10.50;81.90;;;;;;5051763;28;20104;-73
2022/01/25 10:42:26;;;;;;;0.60;0.50;;;10.90;79.70;;;;;;5051678;28;20469;-73
2022/01/25 10:45:02;;;;;;;2.28;0.57;;;11.30;78.40;;;;;;5046018;28;20017;-74
2022/01/25 10:47:44;;;;;;;0.20;0.20;;;11.80;75.70;;;;;;5050536;28;20095;-73
2022/01/25 10:50:34;;;;;;;0.20;0.20;;;12.40;73.00;;;;;;5022268;28;20657;-74
2022/01/25 10:53:11;;;;;;;0.10;0.10;;;13.00;70.60;;;;;;5050454;28;20021;-73
2022/01/25 10:55:43;;;;;;;0.10;0.10;;;13.20;68.10;;;;;;5051206;28;20507;-73
2022/01/25 10:58:10;;;;;;;0.57;0.57;;;13.40;67.70;;;;;;5049223;28;20013;-73
2022/01/25 11:00:41;;;;;;;1.70;1.58;;;13.30;66.00;;;;;;5051221;28;20040;-73
2022/01/25 11:03:06;;;;;;;0.25;0.25;;;12.90;66.40;;;;;;5042161;28;20461;-74
2022/01/25 11:05:43;;;;;;;0.30;0.20;;;13.20;66.10;;;;;;5037068;28;20028;-73
2022/01/25 11:08:15;;;;;;;0.68;0.68;;;13.30;65.40;;;;;;5044095;28;20472;-73
2022/01/25 11:11:06;;;;;;;0.10;0.10;;;13.50;62.70;;;;;;5033300;28;20021;-73
2022/01/25 11:16:02;;;;;;;0.25;0.25;;;13.90;62.50;;;;;;5051278;28;20027;-74
2022/01/25 11:18:32;;;;;;;0.95;0.95;;;14.20;62.50;;;;;;5040621;28;20111;-74
2022/01/25 11:21:00;;;;;;;0.10;0.10;;;14.50;61.80;;;;;;5051204;28;20019;-74
2022/01/25 11:23:27;;;;;;;0.43;0.43;;;14.80;60.60;;;;;;5051001;28;20025;-74
2022/01/25 11:25:55;;;;;;;3.30;1.48;;;15.00;59.80;;;;;;5046481;28;20029;-73
2022/01/25 11:28:22;;;;;;;0.10;0.10;;;15.40;59.40;;;;;;5017141;28;20029;-74
2022/01/25 11:30:49;;;;;;;0.52;0.52;;;15.70;57.70;;;;;;5037800;28;20075;-74
2022/01/25 11:33:18;;;;;;;0.10;0.10;;;15.90;56.90;;;;;;5034441;28;20021;-74
2022/01/25 11:35:44;;;;;;;1.73;0.40;;;15.60;56.90;;;;;;5027079;28;20029;-74
2022/01/25 11:38:10;;;;;;;0.08;0.08;;;15.20;57.40;;;;;;5049136;28;20079;-74
2022/01/25 11:40:44;;;;;;;0.43;0.43;;;14.90;58.30;;;;;;5044237;28;20029;-73
2022/01/25 11:43:14;;;;;;;0.00;0.00;;;15.50;57.40;;;;;;5042954;28;20435;-74
2022/01/25 11:45:49;;;;;;;0.40;0.40;;;15.70;56.50;;;;;;5033300;28;20033;-73
2022/01/25 11:48:33;;;;;;;0.57;0.22;;;15.50;56.70;;;;;;5034580;28;20403;-74
2022/01/25 11:51:01;;;;;;;0.20;0.20;;;15.70;56.00;;;;;;5041317;28;20017;-74
2022/01/25 11:53:29;;;;;;;0.90;0.40;;;15.80;55.20;;;;;;5050769;28;20056;-74
2022/01/25 11:55:56;;;;;;;0.25;0.25;;;15.50;56.10;;;;;;5035210;28;20025;-74
2022/01/25 11:58:21;;;;;;;0.08;0.08;;;15.30;56.90;;;;;;5027122;28;20029;-74
2022/01/25 12:00:51;;;;;;;1.00;0.63;;;15.60;56.80;;;;;;5049321;28;20047;-74
2022/01/25 12:03:41;;;;;;;0.63;0.63;;;15.60;56.10;;;;;;5049609;28;20407;-74
2022/01/25 12:06:11;;;;;;;0.20;0.20;;;15.50;56.40;;;;;;5050537;28;20097;-74
2022/01/25 12:11:23;;;;;;;4.18;1.42;;;16.10;55.40;;;;;;5050575;28;20036;-74
2022/01/25 12:14:09;;;;;;;0.43;0.15;;;16.20;55.40;;;;;;5039728;28;20100;-74
2022/01/25 12:16:44;;;;;;;0.10;0.10;;;16.30;55.20;;;;;;5035917;28;20472;-73
2022/01/25 12:19:15;;;;;;;1.23;0.60;;;15.90;55.80;;;;;;5035361;28;20040;-74
2022/01/25 12:21:54;;;;;;;0.70;0.70;;;16.00;55.90;;;;;;5053640;28;20370;-74
2022/01/25 12:25:20;;;;;;;0.10;0.10;;;16.40;54.80;;;;;;5054291;28;20473;-74
2022/01/25 12:27:57;;;;;;;0.20;0.20;;;16.60;54.90;;;;;;5031784;28;20064;-74
2022/01/25 12:30:26;;;;;;;0.60;0.22;;;16.70;55.20;;;;;;5029367;28;20546;-74
2022/01/25 12:32:55;;;;;;;0.15;0.15;;;16.40;55.70;;;;;;5031000;28;20120;-74
2022/01/25 12:35:42;;;;;;;0.10;0.10;;;16.00;55.40;;;;;;5053956;28;20024;-74
2022/01/25 12:38:19;;;;;;;0.35;0.22;;;16.10;56.30;;;;;;5030854;28;20477;-73
2022/01/25 12:41:01;;;;;;;0.30;0.30;;;15.70;55.90;;;;;;5039221;28;20021;-73
2022/01/25 12:43:38;;;;;;;0.10;0.10;;;15.10;57.60;;;;;;5036145;28;20023;-73
2022/01/25 12:46:16;;;;;;;1.23;1.23;;;14.70;58.20;;;;;;5044332;28;20025;-73
2022/01/25 12:48:46;;;;;;;0.10;0.10;;;14.00;61.20;;;;;;5036836;28;20110;-73
2022/01/25 12:51:18;;;;;;;0.10;0.10;;;13.80;61.80;;;;;;5043551;28;20492;-74
2022/01/25 12:53:47;;;;;;;0.17;0.17;;;13.90;62.70;;;;;;5053218;28;20032;-74
2022/01/25 12:56:19;;;;;;;0.10;0.10;;;13.80;61.70;;;;;;5053632;28;20033;-74
2022/01/25 12:58:50;;;;;;;0.10;0.10;;;14.10;61.60;;;;;;5027178;28;20562;-74
2022/01/25 13:01:19;;;;;;;0.10;0.10;;;14.00;61.40;;;;;;5052582;28;20028;-72
2022/01/25 13:03:48;;;;;;;0.30;0.30;;;13.90;62.10;;;;;;5052470;28;20025;-73
2022/01/25 13:06:20;;;;;;;0.10;0.10;;;13.90;61.60;;;;;;5040759;28;20100;-72
2022/01/25 13:09:04;;;;;;;0.20;0.20;;;14.10;61.70;;;;;;5052798;28;20029;-73
2022/01/25 13:16:54;;;;;;;0.40;0.40;;;15.90;57.50;;;;;;5042708;28;20033;-73
2022/01/25 13:19:26;;;;;;;0.20;0.20;;;16.00;57.20;;;;;;5027485;28;20583;-73
2022/01/25 13:21:57;;;;;;;0.10;0.10;;;16.10;56.50;;;;;;5039877;28;20028;-73
2022/01/25 13:24:28;;;;;;;0.20;0.20;;;16.30;56.50;;;;;;5028749;28;20025;-73
2022/01/25 13:27:01;;;;;;;0.10;0.10;;;16.70;55.40;;;;;;5018520;28;20279;-73
2022/01/25 13:32:21;;;;;;;0.15;0.15;;;16.80;54.60;;;;;;5052888;28;20021;-73
2022/01/25 13:35:15;;;;;;;0.30;0.30;;;17.10;53.30;;;;;;5046611;28;20029;-74
2022/01/25 13:37:42;;;;;;;0.10;0.10;;;16.40;54.00;;;;;;5052793;28;20024;-73
2022/01/25 13:40:09;;;;;;;0.10;0.10;;;15.90;54.20;;;;;;5045424;28;20100;-73
2022/01/25 13:48:06;;;;;;;0.10;0.10;;;13.10;62.10;;;;;;5052045;28;20029;-73
2022/01/25 13:50:34;;;;;;;0.20;0.20;;;12.80;64.40;;;;;;5052568;28;20489;-73
2022/01/25 13:53:00;;;;;;;0.10;0.10;;;12.60;65.60;;;;;;5052006;28;20055;-73
2022/01/25 13:55:26;;;;;;;0.10;0.10;;;12.60;66.10;;;;;;5052345;28;20067;-74
2022/01/25 13:57:52;;;;;;;0.20;0.20;;;12.30;65.80;;;;;;5051973;28;20508;-73
2022/01/25 14:00:20;;;;;;;0.30;0.30;;;12.10;67.50;;;;;;5052247;28;20064;-74
2022/01/25 14:02:55;;;;;;;0.17;0.17;;;11.60;67.40;;;;;;5052217;28;20025;-73
2022/01/25 14:05:22;;;;;;;0.30;0.30;;;11.00;69.80;;;;;;5052131;28;20179;-73
2022/01/25 14:07:50;;;;;;;0.10;0.10;;;10.70;71.60;;;;;;5025384;28;20369;-73
2022/01/25 14:10:24;;;;;;;0.20;0.20;;;10.50;72.00;;;;;;5052526;28;20052;-73
2022/01/25 14:21:52;;;;;;;0.10;0.10;;;10.00;74.20;;;;;;5034199;28;20033;-74
2022/01/25 14:24:17;;;;;;;0.20;0.20;;;9.80;75.40;;;;;;5033578;28;20021;-74
2022/01/25 14:26:43;;;;;;;0.50;0.50;;;9.40;77.50;;;;;;5034149;28;20051;-73
2022/01/25 14:29:15;;;;;;;0.20;0.20;;;8.90;78.70;;;;;;5043101;28;20049;-73
2022/01/25 14:31:42;;;;;;;0.30;0.30;;;8.70;80.90;;;;;;5034147;28;20032;-73
2022/01/25 14:34:11;;;;;;;0.20;0.20;;;8.60;80.80;;;;;;5042983;28;20043;-73
2022/01/25 14:36:39;;;;;;;0.20;0.20;;;8.60;82.00;;;;;;5051679;28;20075;-73
2022/01/25 14:39:06;;;;;;;0.57;0.57;;;8.60;81.40;;;;;;5051722;28;20028;-73
2022/01/25 14:41:34;;;;;;;0.20;0.20;;;8.40;82.40;;;;;;5050915;28;20017;-73
2022/01/25 14:44:09;;;;;;;0.73;0.73;;;8.50;82.70;;;;;;5024028;28;20021;-73
2022/01/25 14:46:43;;;;;;;0.20;0.20;;;8.60;81.90;;;;;;5021637;28;20029;-73
2022/01/25 14:49:29;;;;;;;0.20;0.20;;;8.80;81.20;;;;;;5051636;28;20033;-73
2022/01/25 14:52:05;;;;;;;0.20;0.20;;;8.60;81.60;;;;;;5051565;28;20067;-74
2022/01/25 14:54:33;;;;;;;0.20;0.20;;;8.60;81.60;;;;;;5038200;28;20079;-74
2022/01/25 14:57:04;;;;;;;0.20;0.20;;;8.50;82.30;;;;;;5033396;28;20063;-73
2022/01/25 14:59:33;;;;;;;0.20;0.20;;;8.50;83.70;;;;;;5042260;28;20070;-74
2022/01/25 15:01:59;;;;;;;0.30;0.30;;;8.50;83.50;;;;;;5051333;28;20412;-73
2022/01/25 15:04:27;;;;;;;0.60;0.60;;;8.50;83.60;;;;;;5050859;28;20040;-73
2022/01/25 15:06:53;;;;;;;0.20;0.20;;;8.50;83.30;;;;;;5041017;28;20032;-73
2022/01/25 15:09:19;;;;;;;0.20;0.20;;;8.30;84.00;;;;;;5051032;28;20017;-74
2022/01/25 15:11:46;;;;;;;0.82;0.82;;;8.40;84.40;;;;;;5051269;28;20043;-73
2022/01/25 15:14:20;;;;;;;0.52;0.52;;;8.40;84.40;;;;;;5035925;28;20485;-73
2022/01/25 15:16:47;;;;;;;0.20;0.20;;;8.50;84.70;;;;;;5051118;28;20029;-74